sensor_id;sensor_type;location;lat;lon;timestamp;temperature;humidity
1429;DHT22;708;51.442;7.016;2023-07-02T00:01:26;19.00;1.00
1429;DHT22;708;51.442;7.016;2023-07-02T00:03:53;19.10;1.00
1429;DHT22;708;51.442;7.016;2023-07-02T00:06:20;19.10;1.00
1429;DHT22;708;51.442;7.016;2023-07-02T00:08:47;19.10;1.00
1429;DHT22;708;51.442;7.016;2023-07-02T00:11:15;19.10;1.00
1429;DHT22;708;51.442;7.016;2023-07-02T00:13:42;19.10;1.00
1429;DHT22;708;51.442;7.016;2023-07-02T00:16:09;19.00;1.00
1429;DHT22;708;51.442;7.016;2023-07-02T00:18:36;19.00;1.00
1429;DHT22;708;51.442;7.016;2023-07-02T00:21:02;19.00;1.00
1429;DHT22;708;51.442;7.016;2023-07-02T00:23:29;19.10;1.00
1429;DHT22;708;51.442;7.016;2023-07-02T00:25:56;19.00;1.00
1429;DHT22;708;51.442;7.016;2023-07-02T00:28:24;19.00;1.00
1429;DHT22;708;51.442;7.016;2023-07-02T00:30:51;19.00;1.00
1429;DHT22;708;51.442;7.016;2023-07-02T00:33:18;19.00;1.00
1429;DHT22;708;51.442;7.016;2023-07-02T00:35:44;18.90;1.00
1429;DHT22;708;51.442;7.016;2023-07-02T00:38:11;19.00;1.00
1429;DHT22;708;51.442;7.016;2023-07-02T00:40:38;19.00;1.00
1429;DHT22;708;51.442;7.016;2023-07-02T00:43:05;19.00;1.00
1429;DHT22;708;51.442;7.016;2023-07-02T00:45:33;19.00;1.00
1429;DHT22;708;51.442;7.016;2023-07-02T00:48:00;18.90;1.00
1429;DHT22;708;51.442;7.016;2023-07-02T00:50:27;18.90;1.00
1429;DHT22;708;51.442;7.016;2023-07-02T00:52:54;18.90;1.00
1429;DHT22;708;51.442;7.016;2023-07-02T00:55:21;18.90;1.00
1429;DHT22;708;51.442;7.016;2023-07-02T00:57:47;18.90;1.00
1429;DHT22;708;51.442;7.016;2023-07-02T01:00:15;18.90;1.00
1429;DHT22;708;51.442;7.016;2023-07-02T01:02:43;18.80;1.00
1429;DHT22;708;51.442;7.016;2023-07-02T01:05:22;18.80;1.00
1429;DHT22;708;51.442;7.016;2023-07-02T01:07:49;18.80;1.00
1429;DHT22;708;51.442;7.016;2023-07-02T01:10:16;18.80;1.00
1429;DHT22;708;51.442;7.016;2023-07-02T01:12:43;18.70;1.00
1429;DHT22;708;51.442;7.016;2023-07-02T01:15:11;18.70;1.00
1429;DHT22;708;51.442;7.016;2023-07-02T01:17:38;18.60;1.00
1429;DHT22;708;51.442;7.016;2023-07-02T01:20:09;18.60;1.00
1429;DHT22;708;51.442;7.016;2023-07-02T01:22:37;18.60;1.00
1429;DHT22;708;51.442;7.016;2023-07-02T01:25:04;18.50;1.00
1429;DHT22;708;51.442;7.016;2023-07-02T01:27:34;18.50;1.00
1429;DHT22;708;51.442;7.016;2023-07-02T01:30:01;18.40;1.00
1429;DHT22;708;51.442;7.016;2023-07-02T01:32:29;18.30;1.00
1429;DHT22;708;51.442;7.016;2023-07-02T01:34:56;18.20;1.00
1429;DHT22;708;51.442;7.016;2023-07-02T01:37:25;18.10;1.00
1429;DHT22;708;51.442;7.016;2023-07-02T01:39:52;18.00;1.00
1429;DHT22;708;51.442;7.016;2023-07-02T01:42:19;18.00;1.00
1429;DHT22;708;51.442;7.016;2023-07-02T01:44:47;17.90;1.00
1429;DHT22;708;51.442;7.016;2023-07-02T01:47:15;17.90;1.00
1429;DHT22;708;51.442;7.016;2023-07-02T01:49:42;17.80;1.00
1429;DHT22;708;51.442;7.016;2023-07-02T01:52:09;17.80;1.00
1429;DHT22;708;51.442;7.016;2023-07-02T01:54:37;17.80;1.00
1429;DHT22;708;51.442;7.016;2023-07-02T01:57:04;17.90;1.00
1429;DHT22;708;51.442;7.016;2023-07-02T01:59:34;17.90;1.00
1429;DHT22;708;51.442;7.016;2023-07-02T02:02:01;18.00;1.00
1429;DHT22;708;51.442;7.016;2023-07-02T02:04:28;18.00;1.00
1429;DHT22;708;51.442;7.016;2023-07-02T02:06:55;18.10;1.00
1429;DHT22;708;51.442;7.016;2023-07-02T02:09:22;18.10;1.00
1429;DHT22;708;51.442;7.016;2023-07-02T02:11:50;18.10;1.00
1429;DHT22;708;51.442;7.016;2023-07-02T02:14:17;18.10;1.00
1429;DHT22;708;51.442;7.016;2023-07-02T02:16:44;18.00;1.00
1429;DHT22;708;51.442;7.016;2023-07-02T02:19:11;18.00;1.00
1429;DHT22;708;51.442;7.016;2023-07-02T02:21:39;18.00;1.00
1429;DHT22;708;51.442;7.016;2023-07-02T02:24:06;18.00;1.00
1429;DHT22;708;51.442;7.016;2023-07-02T02:26:33;18.00;1.00
1429;DHT22;708;51.442;7.016;2023-07-02T02:29:02;18.00;1.00
1429;DHT22;708;51.442;7.016;2023-07-02T02:31:28;18.00;1.00
1429;DHT22;708;51.442;7.016;2023-07-02T02:33:56;18.00;1.00
1429;DHT22;708;51.442;7.016;2023-07-02T02:36:23;18.10;1.00
1429;DHT22;708;51.442;7.016;2023-07-02T02:38:49;18.10;1.00
1429;DHT22;708;51.442;7.016;2023-07-02T02:41:16;18.10;1.00
1429;DHT22;708;51.442;7.016;2023-07-02T02:43:43;18.20;1.00
1429;DHT22;708;51.442;7.016;2023-07-02T02:46:11;18.20;1.00
1429;DHT22;708;51.442;7.016;2023-07-02T02:48:38;18.30;1.00
1429;DHT22;708;51.442;7.016;2023-07-02T02:51:05;18.30;1.00
1429;DHT22;708;51.442;7.016;2023-07-02T02:53:32;18.40;1.00
1429;DHT22;708;51.442;7.016;2023-07-02T02:55:59;18.30;99.90
1429;DHT22;708;51.442;7.016;2023-07-02T02:58:26;18.30;99.90
1429;DHT22;708;51.442;7.016;2023-07-02T03:00:53;18.30;99.90
1429;DHT22;708;51.442;7.016;2023-07-02T03:03:22;18.30;99.90
1429;DHT22;708;51.442;7.016;2023-07-02T03:05:49;18.30;99.90
1429;DHT22;708;51.442;7.016;2023-07-02T03:08:16;18.30;99.90
1429;DHT22;708;51.442;7.016;2023-07-02T03:10:43;18.40;99.90
1429;DHT22;708;51.442;7.016;2023-07-02T03:13:10;18.40;99.90
1429;DHT22;708;51.442;7.016;2023-07-02T03:15:36;18.30;99.90
1429;DHT22;708;51.442;7.016;2023-07-02T03:18:03;18.30;99.90
1429;DHT22;708;51.442;7.016;2023-07-02T03:20:31;18.30;99.90
1429;DHT22;708;51.442;7.016;2023-07-02T03:22:58;18.30;99.90
1429;DHT22;708;51.442;7.016;2023-07-02T03:25:25;18.30;99.90
1429;DHT22;708;51.442;7.016;2023-07-02T03:27:51;18.40;99.90
1429;DHT22;708;51.442;7.016;2023-07-02T03:30:18;18.30;99.90
1429;DHT22;708;51.442;7.016;2023-07-02T03:32:45;18.30;99.90
1429;DHT22;708;51.442;7.016;2023-07-02T03:35:12;18.30;99.90
1429;DHT22;708;51.442;7.016;2023-07-02T03:37:40;18.30;99.90
1429;DHT22;708;51.442;7.016;2023-07-02T03:40:09;18.40;99.90
1429;DHT22;708;51.442;7.016;2023-07-02T03:42:36;18.40;99.90
1429;DHT22;708;51.442;7.016;2023-07-02T03:45:03;18.40;99.90
1429;DHT22;708;51.442;7.016;2023-07-02T03:47:30;18.40;99.90
1429;DHT22;708;51.442;7.016;2023-07-02T03:49:57;18.50;99.90
1429;DHT22;708;51.442;7.016;2023-07-02T03:52:23;18.50;99.90
1429;DHT22;708;51.442;7.016;2023-07-02T03:54:52;18.50;99.90
1429;DHT22;708;51.442;7.016;2023-07-02T03:57:18;18.50;99.90
1429;DHT22;708;51.442;7.016;2023-07-02T03:59:46;18.50;99.90
1429;DHT22;708;51.442;7.016;2023-07-02T04:02:13;18.60;99.90
1429;DHT22;708;51.442;7.016;2023-07-02T04:04:39;18.50;99.90
1429;DHT22;708;51.442;7.016;2023-07-02T04:07:06;18.60;99.90
1429;DHT22;708;51.442;7.016;2023-07-02T04:09:33;18.60;99.90
1429;DHT22;708;51.442;7.016;2023-07-02T04:12:01;18.60;99.90
1429;DHT22;708;51.442;7.016;2023-07-02T04:14:28;18.60;99.90
1429;DHT22;708;51.442;7.016;2023-07-02T04:16:55;18.60;99.90
1429;DHT22;708;51.442;7.016;2023-07-02T04:19:21;18.60;99.90
1429;DHT22;708;51.442;7.016;2023-07-02T04:21:49;18.70;99.90
1429;DHT22;708;51.442;7.016;2023-07-02T04:24:16;18.70;99.90
1429;DHT22;708;51.442;7.016;2023-07-02T04:26:46;18.80;99.90
1429;DHT22;708;51.442;7.016;2023-07-02T04:29:14;18.80;99.90
1429;DHT22;708;51.442;7.016;2023-07-02T04:31:40;18.70;99.90
1429;DHT22;708;51.442;7.016;2023-07-02T04:34:07;18.70;99.90
1429;DHT22;708;51.442;7.016;2023-07-02T04:36:34;18.80;99.90
1429;DHT22;708;51.442;7.016;2023-07-02T04:39:01;18.80;99.90
1429;DHT22;708;51.442;7.016;2023-07-02T04:41:27;18.80;99.90
1429;DHT22;708;51.442;7.016;2023-07-02T04:43:55;18.80;99.90
1429;DHT22;708;51.442;7.016;2023-07-02T04:46:23;18.90;99.90
1429;DHT22;708;51.442;7.016;2023-07-02T04:48:50;18.90;99.90
1429;DHT22;708;51.442;7.016;2023-07-02T04:51:17;18.90;99.90
1429;DHT22;708;51.442;7.016;2023-07-02T04:53:44;19.00;99.90
1429;DHT22;708;51.442;7.016;2023-07-02T04:56:10;19.00;99.90
1429;DHT22;708;51.442;7.016;2023-07-02T04:58:37;19.10;99.90
1429;DHT22;708;51.442;7.016;2023-07-02T05:01:04;19.20;99.90
1429;DHT22;708;51.442;7.016;2023-07-02T05:03:32;19.30;4.10
1429;DHT22;708;51.442;7.016;2023-07-02T05:05:59;19.40;1.00
1429;DHT22;708;51.442;7.016;2023-07-02T05:08:26;19.50;1.00
1429;DHT22;708;51.442;7.016;2023-07-02T05:10:52;19.60;1.00
1429;DHT22;708;51.442;7.016;2023-07-02T05:13:19;20.00;99.90
1429;DHT22;708;51.442;7.016;2023-07-02T05:15:46;20.50;99.90
1429;DHT22;708;51.442;7.016;2023-07-02T05:18:13;20.90;99.90
1429;DHT22;708;51.442;7.016;2023-07-02T05:20:41;21.40;66.50
1429;DHT22;708;51.442;7.016;2023-07-02T05:23:08;22.20;1.00
1429;DHT22;708;51.442;7.016;2023-07-02T05:25:34;22.80;99.90
1429;DHT22;708;51.442;7.016;2023-07-02T05:28:01;23.00;12.30
1429;DHT22;708;51.442;7.016;2023-07-02T05:30:28;23.00;1.00
1429;DHT22;708;51.442;7.016;2023-07-02T05:32:54;22.90;1.00
1429;DHT22;708;51.442;7.016;2023-07-02T05:35:21;22.70;1.00
1429;DHT22;708;51.442;7.016;2023-07-02T05:37:49;22.60;1.00
1429;DHT22;708;51.442;7.016;2023-07-02T05:40:16;22.50;22.90
1429;DHT22;708;51.442;7.016;2023-07-02T05:42:43;22.70;1.00
1429;DHT22;708;51.442;7.016;2023-07-02T05:45:10;23.00;1.00
1429;DHT22;708;51.442;7.016;2023-07-02T05:47:37;23.40;1.00
1429;DHT22;708;51.442;7.016;2023-07-02T05:50:05;24.00;99.90
1429;DHT22;708;51.442;7.016;2023-07-02T05:52:32;24.20;99.90
1429;DHT22;708;51.442;7.016;2023-07-02T05:55:00;24.80;99.90
1429;DHT22;708;51.442;7.016;2023-07-02T05:57:27;25.30;99.90
1429;DHT22;708;51.442;7.016;2023-07-02T05:59:54;25.90;99.90
1429;DHT22;708;51.442;7.016;2023-07-02T06:02:20;26.70;99.90
1429;DHT22;708;51.442;7.016;2023-07-02T06:04:47;27.10;99.90
1429;DHT22;708;51.442;7.016;2023-07-02T06:07:14;27.60;99.90
1429;DHT22;708;51.442;7.016;2023-07-02T06:09:41;28.20;92.10
1429;DHT22;708;51.442;7.016;2023-07-02T06:12:09;28.80;79.70
1429;DHT22;708;51.442;7.016;2023-07-02T06:14:36;29.70;56.90
1429;DHT22;708;51.442;7.016;2023-07-02T06:17:03;29.70;44.00
1429;DHT22;708;51.442;7.016;2023-07-02T06:19:32;29.90;36.90
1429;DHT22;708;51.442;7.016;2023-07-02T06:21:58;29.90;30.30
1429;DHT22;708;51.442;7.016;2023-07-02T06:24:25;29.70;29.40
1429;DHT22;708;51.442;7.016;2023-07-02T06:26:52;29.60;27.60
1429;DHT22;708;51.442;7.016;2023-07-02T06:31:48;30.20;24.40
1429;DHT22;708;51.442;7.016;2023-07-02T06:34:14;31.00;19.80
1429;DHT22;708;51.442;7.016;2023-07-02T06:36:41;31.10;17.30
1429;DHT22;708;51.442;7.016;2023-07-02T06:39:08;31.40;13.70
1429;DHT22;708;51.442;7.016;2023-07-02T06:41:35;31.40;11.60
1429;DHT22;708;51.442;7.016;2023-07-02T06:44:02;31.60;9.20
1429;DHT22;708;51.442;7.016;2023-07-02T06:46:32;32.40;1.00
1429;DHT22;708;51.442;7.016;2023-07-02T06:48:58;32.60;4.70
1429;DHT22;708;51.442;7.016;2023-07-02T06:51:25;33.00;1.70
1429;DHT22;708;51.442;7.016;2023-07-02T06:53:54;34.50;1.00
1429;DHT22;708;51.442;7.016;2023-07-02T06:56:21;34.80;1.00
1429;DHT22;708;51.442;7.016;2023-07-02T06:58:48;35.80;1.00
1429;DHT22;708;51.442;7.016;2023-07-02T07:01:14;36.90;1.00
1429;DHT22;708;51.442;7.016;2023-07-02T07:03:42;37.60;1.00
1429;DHT22;708;51.442;7.016;2023-07-02T07:06:09;37.80;1.00
1429;DHT22;708;51.442;7.016;2023-07-02T07:08:37;37.20;1.00
1429;DHT22;708;51.442;7.016;2023-07-02T07:11:04;36.40;1.00
1429;DHT22;708;51.442;7.016;2023-07-02T07:13:31;36.30;1.00
1429;DHT22;708;51.442;7.016;2023-07-02T07:15:58;36.50;1.00
1429;DHT22;708;51.442;7.016;2023-07-02T07:18:25;36.80;1.00
1429;DHT22;708;51.442;7.016;2023-07-02T07:20:53;36.50;1.00
1429;DHT22;708;51.442;7.016;2023-07-02T07:23:20;35.60;1.00
1429;DHT22;708;51.442;7.016;2023-07-02T07:25:46;35.60;1.00
1429;DHT22;708;51.442;7.016;2023-07-02T07:28:13;35.70;1.00
1429;DHT22;708;51.442;7.016;2023-07-02T07:30:45;35.90;1.00
1429;DHT22;708;51.442;7.016;2023-07-02T07:33:16;36.00;1.00
1429;DHT22;708;51.442;7.016;2023-07-02T07:35:43;35.90;1.00
1429;DHT22;708;51.442;7.016;2023-07-02T07:38:13;36.00;1.00
1429;DHT22;708;51.442;7.016;2023-07-02T07:40:42;35.90;1.00
1429;DHT22;708;51.442;7.016;2023-07-02T07:43:09;36.20;1.00
1429;DHT22;708;51.442;7.016;2023-07-02T07:45:36;36.90;1.00
1429;DHT22;708;51.442;7.016;2023-07-02T07:48:03;37.40;1.00
1429;DHT22;708;51.442;7.016;2023-07-02T07:50:30;37.90;1.00
1429;DHT22;708;51.442;7.016;2023-07-02T07:52:57;36.90;1.00
1429;DHT22;708;51.442;7.016;2023-07-02T07:55:26;36.00;1.00
1429;DHT22;708;51.442;7.016;2023-07-02T07:57:52;34.70;1.00
1429;DHT22;708;51.442;7.016;2023-07-02T08:00:19;33.40;1.00
1429;DHT22;708;51.442;7.016;2023-07-02T08:02:46;31.90;1.00
1429;DHT22;708;51.442;7.016;2023-07-02T08:05:13;31.10;1.00
1429;DHT22;708;51.442;7.016;2023-07-02T08:07:40;31.00;1.00
1429;DHT22;708;51.442;7.016;2023-07-02T08:10:07;30.90;1.00
1429;DHT22;708;51.442;7.016;2023-07-02T08:12:36;31.50;1.00
1429;DHT22;708;51.442;7.016;2023-07-02T08:15:03;32.80;1.00
1429;DHT22;708;51.442;7.016;2023-07-02T08:17:30;33.60;1.00
1429;DHT22;708;51.442;7.016;2023-07-02T08:19:57;33.20;1.00
1429;DHT22;708;51.442;7.016;2023-07-02T08:22:25;32.30;1.00
1429;DHT22;708;51.442;7.016;2023-07-02T08:24:52;31.40;1.00
1429;DHT22;708;51.442;7.016;2023-07-02T08:27:20;31.60;1.00
1429;DHT22;708;51.442;7.016;2023-07-02T08:29:48;31.70;1.00
1429;DHT22;708;51.442;7.016;2023-07-02T08:32:15;31.80;1.00
1429;DHT22;708;51.442;7.016;2023-07-02T08:34:42;31.50;1.00
1429;DHT22;708;51.442;7.016;2023-07-02T08:37:09;31.30;1.00
1429;DHT22;708;51.442;7.016;2023-07-02T08:39:37;31.00;1.00
1429;DHT22;708;51.442;7.016;2023-07-02T08:42:05;31.20;1.00
1429;DHT22;708;51.442;7.016;2023-07-02T08:44:32;31.30;1.00
1429;DHT22;708;51.442;7.016;2023-07-02T08:47:00;30.60;1.00
1429;DHT22;708;51.442;7.016;2023-07-02T08:49:28;30.20;1.00
1429;DHT22;708;51.442;7.016;2023-07-02T08:51:55;29.80;1.00
1429;DHT22;708;51.442;7.016;2023-07-02T08:54:22;29.80;1.00
1429;DHT22;708;51.442;7.016;2023-07-02T08:56:49;29.30;1.00
1429;DHT22;708;51.442;7.016;2023-07-02T08:59:16;28.70;1.00
1429;DHT22;708;51.442;7.016;2023-07-02T09:01:46;27.90;1.00
1429;DHT22;708;51.442;7.016;2023-07-02T09:04:22;28.10;1.00
1429;DHT22;708;51.442;7.016;2023-07-02T09:07:03;28.30;1.00
1429;DHT22;708;51.442;7.016;2023-07-02T09:09:30;28.40;1.00
1429;DHT22;708;51.442;7.016;2023-07-02T09:11:57;28.20;1.00
1429;DHT22;708;51.442;7.016;2023-07-02T09:14:24;27.90;1.00
1429;DHT22;708;51.442;7.016;2023-07-02T09:17:02;27.60;1.00
1429;DHT22;708;51.442;7.016;2023-07-02T09:19:30;27.70;1.00
1429;DHT22;708;51.442;7.016;2023-07-02T09:21:58;28.30;1.00
1429;DHT22;708;51.442;7.016;2023-07-02T09:24:26;29.10;1.00
1429;DHT22;708;51.442;7.016;2023-07-02T09:26:55;30.30;1.00
1429;DHT22;708;51.442;7.016;2023-07-02T09:29:23;31.40;1.00
1429;DHT22;708;51.442;7.016;2023-07-02T09:31:50;32.80;1.00
1429;DHT22;708;51.442;7.016;2023-07-02T09:34:17;33.40;1.00
1429;DHT22;708;51.442;7.016;2023-07-02T09:36:49;34.10;1.00
1429;DHT22;708;51.442;7.016;2023-07-02T09:39:25;34.70;1.00
1429;DHT22;708;51.442;7.016;2023-07-02T09:41:52;35.20;1.00
1429;DHT22;708;51.442;7.016;2023-07-02T09:44:19;35.50;1.00
1429;DHT22;708;51.442;7.016;2023-07-02T09:46:51;35.80;1.00
1429;DHT22;708;51.442;7.016;2023-07-02T09:49:20;35.70;1.00
1429;DHT22;708;51.442;7.016;2023-07-02T09:51:50;35.20;1.00
1429;DHT22;708;51.442;7.016;2023-07-02T09:54:17;34.80;1.00
1429;DHT22;708;51.442;7.016;2023-07-02T09:56:46;34.00;1.00
1429;DHT22;708;51.442;7.016;2023-07-02T09:59:13;32.80;1.00
1429;DHT22;708;51.442;7.016;2023-07-02T10:01:40;31.40;1.00
1429;DHT22;708;51.442;7.016;2023-07-02T10:04:11;30.30;1.00
1429;DHT22;708;51.442;7.016;2023-07-02T10:06:45;29.60;1.00
1429;DHT22;708;51.442;7.016;2023-07-02T10:09:13;28.70;1.00
1429;DHT22;708;51.442;7.016;2023-07-02T10:11:40;28.20;1.00
1429;DHT22;708;51.442;7.016;2023-07-02T10:14:06;27.50;1.00
1429;DHT22;708;51.442;7.016;2023-07-02T10:16:33;26.80;1.00
1429;DHT22;708;51.442;7.016;2023-07-02T10:19:09;26.40;1.00
1429;DHT22;708;51.442;7.016;2023-07-02T10:21:36;26.10;1.00
1429;DHT22;708;51.442;7.016;2023-07-02T10:24:11;25.80;1.00
1429;DHT22;708;51.442;7.016;2023-07-02T10:26:39;25.40;1.00
1429;DHT22;708;51.442;7.016;2023-07-02T10:29:18;24.80;1.00
1429;DHT22;708;51.442;7.016;2023-07-02T10:31:48;24.70;1.00
1429;DHT22;708;51.442;7.016;2023-07-02T10:34:15;24.70;1.00
1429;DHT22;708;51.442;7.016;2023-07-02T10:36:42;25.20;1.00
1429;DHT22;708;51.442;7.016;2023-07-02T10:39:08;26.30;1.00
1429;DHT22;708;51.442;7.016;2023-07-02T10:41:36;27.20;1.00
1429;DHT22;708;51.442;7.016;2023-07-02T10:44:08;27.90;1.00
1429;DHT22;708;51.442;7.016;2023-07-02T10:46:43;28.10;1.00
1429;DHT22;708;51.442;7.016;2023-07-02T10:49:10;28.10;1.00
1429;DHT22;708;51.442;7.016;2023-07-02T10:51:37;28.00;1.00
1429;DHT22;708;51.442;7.016;2023-07-02T10:54:04;28.00;1.00
1429;DHT22;708;51.442;7.016;2023-07-02T10:56:32;27.90;1.00
1429;DHT22;708;51.442;7.016;2023-07-02T10:58:59;27.80;1.00
1429;DHT22;708;51.442;7.016;2023-07-02T11:01:28;27.80;1.00
1429;DHT22;708;51.442;7.016;2023-07-02T11:03:57;27.60;1.00
1429;DHT22;708;51.442;7.016;2023-07-02T11:06:25;27.50;1.00
1429;DHT22;708;51.442;7.016;2023-07-02T11:08:52;27.50;1.00
1429;DHT22;708;51.442;7.016;2023-07-02T11:11:21;27.50;1.00
1429;DHT22;708;51.442;7.016;2023-07-02T11:13:48;27.10;1.00
1429;DHT22;708;51.442;7.016;2023-07-02T11:16:25;26.80;1.00
1429;DHT22;708;51.442;7.016;2023-07-02T11:18:54;26.50;1.00
1429;DHT22;708;51.442;7.016;2023-07-02T11:21:32;26.30;1.00
1429;DHT22;708;51.442;7.016;2023-07-02T11:24:02;26.40;1.00
1429;DHT22;708;51.442;7.016;2023-07-02T11:26:35;26.50;1.00
1429;DHT22;708;51.442;7.016;2023-07-02T11:29:02;26.50;1.00
1429;DHT22;708;51.442;7.016;2023-07-02T11:31:29;26.50;1.00
1429;DHT22;708;51.442;7.016;2023-07-02T11:33:57;26.40;1.00
1429;DHT22;708;51.442;7.016;2023-07-02T11:36:24;26.50;1.00
1429;DHT22;708;51.442;7.016;2023-07-02T11:38:54;26.60;1.00
1429;DHT22;708;51.442;7.016;2023-07-02T11:41:21;26.30;1.00
1429;DHT22;708;51.442;7.016;2023-07-02T11:43:48;26.40;1.00
1429;DHT22;708;51.442;7.016;2023-07-02T11:46:15;26.50;1.00
1429;DHT22;708;51.442;7.016;2023-07-02T11:48:42;26.40;1.00
1429;DHT22;708;51.442;7.016;2023-07-02T11:51:10;26.30;1.00
1429;DHT22;708;51.442;7.016;2023-07-02T11:53:36;26.40;1.00
1429;DHT22;708;51.442;7.016;2023-07-02T11:56:06;26.50;1.00
1429;DHT22;708;51.442;7.016;2023-07-02T11:58:35;26.60;1.00
1429;DHT22;708;51.442;7.016;2023-07-02T12:01:01;26.50;1.00
1429;DHT22;708;51.442;7.016;2023-07-02T12:03:28;26.40;1.00
1429;DHT22;708;51.442;7.016;2023-07-02T12:05:55;26.40;1.00
1429;DHT22;708;51.442;7.016;2023-07-02T12:08:23;26.40;1.00
1429;DHT22;708;51.442;7.016;2023-07-02T12:10:50;26.30;1.00
1429;DHT22;708;51.442;7.016;2023-07-02T12:13:17;26.20;1.00
1429;DHT22;708;51.442;7.016;2023-07-02T12:15:46;26.20;1.00
1429;DHT22;708;51.442;7.016;2023-07-02T12:18:13;26.30;1.00
1429;DHT22;708;51.442;7.016;2023-07-02T12:20:40;26.30;1.00
1429;DHT22;708;51.442;7.016;2023-07-02T12:23:06;26.20;1.00
1429;DHT22;708;51.442;7.016;2023-07-02T12:25:34;25.80;1.00
1429;DHT22;708;51.442;7.016;2023-07-02T12:28:03;25.80;1.00
1429;DHT22;708;51.442;7.016;2023-07-02T12:30:30;25.80;1.00
1429;DHT22;708;51.442;7.016;2023-07-02T12:32:58;25.90;1.00
1429;DHT22;708;51.442;7.016;2023-07-02T12:35:24;26.00;1.00
1429;DHT22;708;51.442;7.016;2023-07-02T12:37:52;26.00;1.00
1429;DHT22;708;51.442;7.016;2023-07-02T12:40:20;26.10;1.00
1429;DHT22;708;51.442;7.016;2023-07-02T12:42:48;26.10;1.00
1429;DHT22;708;51.442;7.016;2023-07-02T12:45:15;26.10;1.00
1429;DHT22;708;51.442;7.016;2023-07-02T12:47:43;25.90;1.00
1429;DHT22;708;51.442;7.016;2023-07-02T12:50:13;25.80;1.00
1429;DHT22;708;51.442;7.016;2023-07-02T12:52:39;25.60;1.00
1429;DHT22;708;51.442;7.016;2023-07-02T12:55:07;25.60;1.00
1429;DHT22;708;51.442;7.016;2023-07-02T12:57:34;25.60;1.00
1429;DHT22;708;51.442;7.016;2023-07-02T13:00:03;25.60;1.00
1429;DHT22;708;51.442;7.016;2023-07-02T13:02:31;25.50;1.00
1429;DHT22;708;51.442;7.016;2023-07-02T13:04:58;25.50;1.00
1429;DHT22;708;51.442;7.016;2023-07-02T13:07:25;25.60;1.00
1429;DHT22;708;51.442;7.016;2023-07-02T13:09:53;25.60;1.00
1429;DHT22;708;51.442;7.016;2023-07-02T13:12:20;25.60;1.00
1429;DHT22;708;51.442;7.016;2023-07-02T13:14:46;25.60;1.00
1429;DHT22;708;51.442;7.016;2023-07-02T13:17:14;25.80;1.00
1429;DHT22;708;51.442;7.016;2023-07-02T13:19:41;25.90;1.00
1429;DHT22;708;51.442;7.016;2023-07-02T13:22:08;26.20;1.00
1429;DHT22;708;51.442;7.016;2023-07-02T13:24:36;26.30;1.00
1429;DHT22;708;51.442;7.016;2023-07-02T13:27:05;26.30;1.00
1429;DHT22;708;51.442;7.016;2023-07-02T13:29:33;26.30;1.00
1429;DHT22;708;51.442;7.016;2023-07-02T13:32:00;26.20;1.00
1429;DHT22;708;51.442;7.016;2023-07-02T13:34:28;26.10;1.00
1429;DHT22;708;51.442;7.016;2023-07-02T13:36:55;26.00;1.00
1429;DHT22;708;51.442;7.016;2023-07-02T13:39:22;26.00;1.00
1429;DHT22;708;51.442;7.016;2023-07-02T13:41:50;25.80;1.00
1429;DHT22;708;51.442;7.016;2023-07-02T13:44:17;25.70;1.00
1429;DHT22;708;51.442;7.016;2023-07-02T13:46:45;25.90;1.00
1429;DHT22;708;51.442;7.016;2023-07-02T13:49:12;26.00;1.00
1429;DHT22;708;51.442;7.016;2023-07-02T13:51:40;26.00;1.00
1429;DHT22;708;51.442;7.016;2023-07-02T13:54:06;25.80;1.00
1429;DHT22;708;51.442;7.016;2023-07-02T13:56:33;25.80;1.00
1429;DHT22;708;51.442;7.016;2023-07-02T13:59:02;25.70;1.00
1429;DHT22;708;51.442;7.016;2023-07-02T14:01:30;25.80;1.00
1429;DHT22;708;51.442;7.016;2023-07-02T14:03:58;25.80;1.00
1429;DHT22;708;51.442;7.016;2023-07-02T14:06:25;25.70;1.00
1429;DHT22;708;51.442;7.016;2023-07-02T14:08:52;25.80;1.00
1429;DHT22;708;51.442;7.016;2023-07-02T14:11:19;25.70;1.00
1429;DHT22;708;51.442;7.016;2023-07-02T14:13:46;25.60;1.00
1429;DHT22;708;51.442;7.016;2023-07-02T14:16:14;25.50;1.00
1429;DHT22;708;51.442;7.016;2023-07-02T14:18:41;25.50;1.00
1429;DHT22;708;51.442;7.016;2023-07-02T14:21:08;25.50;1.00
1429;DHT22;708;51.442;7.016;2023-07-02T14:23:35;25.50;1.00
1429;DHT22;708;51.442;7.016;2023-07-02T14:26:02;25.60;1.00
1429;DHT22;708;51.442;7.016;2023-07-02T14:28:29;25.80;1.00
1429;DHT22;708;51.442;7.016;2023-07-02T14:30:56;25.80;1.00
1429;DHT22;708;51.442;7.016;2023-07-02T14:33:25;25.80;1.00
1429;DHT22;708;51.442;7.016;2023-07-02T14:35:52;26.00;1.00
1429;DHT22;708;51.442;7.016;2023-07-02T14:38:19;26.00;1.00
1429;DHT22;708;51.442;7.016;2023-07-02T14:40:47;26.00;1.00
1429;DHT22;708;51.442;7.016;2023-07-02T14:43:14;25.90;1.00
1429;DHT22;708;51.442;7.016;2023-07-02T14:45:46;25.80;1.00
1429;DHT22;708;51.442;7.016;2023-07-02T14:48:14;25.90;1.00
1429;DHT22;708;51.442;7.016;2023-07-02T14:50:48;26.00;1.00
1429;DHT22;708;51.442;7.016;2023-07-02T14:53:15;26.00;1.00
1429;DHT22;708;51.442;7.016;2023-07-02T14:55:42;25.70;1.00
1429;DHT22;708;51.442;7.016;2023-07-02T14:58:10;25.70;1.00
1429;DHT22;708;51.442;7.016;2023-07-02T15:00:43;25.70;1.00
1429;DHT22;708;51.442;7.016;2023-07-02T15:03:10;25.50;1.00
1429;DHT22;708;51.442;7.016;2023-07-02T15:05:37;25.50;1.00
1429;DHT22;708;51.442;7.016;2023-07-02T15:08:05;25.70;1.00
1429;DHT22;708;51.442;7.016;2023-07-02T15:10:33;25.80;1.00
1429;DHT22;708;51.442;7.016;2023-07-02T15:13:00;25.90;1.00
1429;DHT22;708;51.442;7.016;2023-07-02T15:15:27;25.90;1.00
1429;DHT22;708;51.442;7.016;2023-07-02T15:17:54;25.80;1.00
1429;DHT22;708;51.442;7.016;2023-07-02T15:20:20;25.70;1.00
1429;DHT22;708;51.442;7.016;2023-07-02T15:22:47;25.60;1.00
1429;DHT22;708;51.442;7.016;2023-07-02T15:25:18;25.40;1.00
1429;DHT22;708;51.442;7.016;2023-07-02T15:27:45;25.20;1.00
1429;DHT22;708;51.442;7.016;2023-07-02T15:30:12;25.10;1.00
1429;DHT22;708;51.442;7.016;2023-07-02T15:32:39;25.20;1.00
1429;DHT22;708;51.442;7.016;2023-07-02T15:35:07;25.30;1.00
1429;DHT22;708;51.442;7.016;2023-07-02T15:37:34;25.40;1.00
1429;DHT22;708;51.442;7.016;2023-07-02T15:40:01;25.30;1.00
1429;DHT22;708;51.442;7.016;2023-07-02T15:42:29;25.00;1.00
1429;DHT22;708;51.442;7.016;2023-07-02T15:44:58;25.00;1.00
1429;DHT22;708;51.442;7.016;2023-07-02T15:47:25;24.80;1.00
1429;DHT22;708;51.442;7.016;2023-07-02T15:49:54;24.80;1.00
1429;DHT22;708;51.442;7.016;2023-07-02T15:52:21;24.80;1.00
1429;DHT22;708;51.442;7.016;2023-07-02T15:54:48;24.80;1.00
1429;DHT22;708;51.442;7.016;2023-07-02T15:57:14;24.80;1.00
1429;DHT22;708;51.442;7.016;2023-07-02T15:59:43;24.80;1.00
1429;DHT22;708;51.442;7.016;2023-07-02T16:02:09;24.80;1.00
1429;DHT22;708;51.442;7.016;2023-07-02T16:04:36;24.90;1.00
1429;DHT22;708;51.442;7.016;2023-07-02T16:07:07;25.00;1.00
1429;DHT22;708;51.442;7.016;2023-07-02T16:09:34;25.10;1.00
1429;DHT22;708;51.442;7.016;2023-07-02T16:12:01;25.10;1.00
1429;DHT22;708;51.442;7.016;2023-07-02T16:14:28;25.10;1.00
1429;DHT22;708;51.442;7.016;2023-07-02T16:16:56;25.00;1.00
1429;DHT22;708;51.442;7.016;2023-07-02T16:19:23;25.00;1.00
1429;DHT22;708;51.442;7.016;2023-07-02T16:21:50;24.90;1.00
1429;DHT22;708;51.442;7.016;2023-07-02T16:24:20;24.80;1.00
1429;DHT22;708;51.442;7.016;2023-07-02T16:26:49;24.70;1.00
1429;DHT22;708;51.442;7.016;2023-07-02T16:29:17;24.70;1.00
1429;DHT22;708;51.442;7.016;2023-07-02T16:31:46;24.60;1.00
1429;DHT22;708;51.442;7.016;2023-07-02T16:34:14;24.70;1.00
1429;DHT22;708;51.442;7.016;2023-07-02T16:36:42;24.50;1.00